sensor_id;sensor_type;location;lat;lon;timestamp;P1;durP1;ratioP1;P2;durP2;ratioP2
76176;SDS011;64938;47.696;8.066;2023-06-26T00:01:28;7.77;;;7.07;;
76176;SDS011;64938;47.696;8.066;2023-06-26T00:03:57;7.00;;;6.40;;
76176;SDS011;64938;47.696;8.066;2023-06-26T00:06:24;8.00;;;7.20;;
76176;SDS011;64938;47.696;8.066;2023-06-26T00:08:51;7.17;;;6.57;;
76176;SDS011;64938;47.696;8.066;2023-06-26T00:11:18;8.00;;;7.30;;
76176;SDS011;64938;47.696;8.066;2023-06-26T00:13:44;9.07;;;6.60;;
76176;SDS011;64938;47.696;8.066;2023-06-26T00:16:10;7.90;;;7.30;;
76176;SDS011;64938;47.696;8.066;2023-06-26T00:18:35;7.50;;;6.73;;
76176;SDS011;64938;47.696;8.066;2023-06-26T00:21:01;8.67;;;7.70;;
76176;SDS011;64938;47.696;8.066;2023-06-26T00:23:26;8.53;;;7.73;;
76176;SDS011;64938;47.696;8.066;2023-06-26T00:25:57;8.87;;;7.73;;
76176;SDS011;64938;47.696;8.066;2023-06-26T00:28:23;8.23;;;7.43;;
76176;SDS011;64938;47.696;8.066;2023-06-26T00:30:48;7.70;;;7.00;;
76176;SDS011;64938;47.696;8.066;2023-06-26T00:33:15;7.43;;;6.70;;
76176;SDS011;64938;47.696;8.066;2023-06-26T00:35:43;8.20;;;7.50;;
76176;SDS011;64938;47.696;8.066;2023-06-26T00:38:08;7.60;;;6.90;;
76176;SDS011;64938;47.696;8.066;2023-06-26T00:40:34;7.93;;;7.13;;
76176;SDS011;64938;47.696;8.066;2023-06-26T00:43:00;8.03;;;7.33;;
76176;SDS011;64938;47.696;8.066;2023-06-26T00:45:25;7.93;;;7.17;;
76176;SDS011;64938;47.696;8.066;2023-06-26T00:47:51;8.13;;;7.43;;
76176;SDS011;64938;47.696;8.066;2023-06-26T00:50:16;8.20;;;7.40;;
76176;SDS011;64938;47.696;8.066;2023-06-26T00:52:42;8.00;;;7.30;;
76176;SDS011;64938;47.696;8.066;2023-06-26T00:55:08;7.67;;;6.87;;
76176;SDS011;64938;47.696;8.066;2023-06-26T00:57:34;7.60;;;6.80;;
76176;SDS011;64938;47.696;8.066;2023-06-26T01:00:01;8.50;;;7.17;;
76176;SDS011;64938;47.696;8.066;2023-06-26T01:02:35;8.03;;;7.33;;
76176;SDS011;64938;47.696;8.066;2023-06-26T01:05:04;8.30;;;7.47;;
76176;SDS011;64938;47.696;8.066;2023-06-26T01:07:32;7.93;;;7.23;;
76176;SDS011;64938;47.696;8.066;2023-06-26T01:10:02;8.23;;;7.57;;
76176;SDS011;64938;47.696;8.066;2023-06-26T01:12:31;7.60;;;6.90;;
76176;SDS011;64938;47.696;8.066;2023-06-26T01:14:58;7.50;;;6.80;;
76176;SDS011;64938;47.696;8.066;2023-06-26T01:17:24;7.90;;;7.20;;
76176;SDS011;64938;47.696;8.066;2023-06-26T01:19:50;7.70;;;7.00;;
76176;SDS011;64938;47.696;8.066;2023-06-26T01:28:10;7.47;;;6.77;;
76176;SDS011;64938;47.696;8.066;2023-06-26T01:30:37;7.90;;;7.20;;
76176;SDS011;64938;47.696;8.066;2023-06-26T01:33:06;8.50;;;7.80;;
76176;SDS011;64938;47.696;8.066;2023-06-26T01:35:32;8.43;;;7.03;;
76176;SDS011;64938;47.696;8.066;2023-06-26T01:38:19;8.17;;;7.47;;
76176;SDS011;64938;47.696;8.066;2023-06-26T01:40:45;7.97;;;7.27;;
76176;SDS011;64938;47.696;8.066;2023-06-26T01:46:14;8.60;;;7.90;;
76176;SDS011;64938;47.696;8.066;2023-06-26T01:48:46;9.53;;;7.90;;
76176;SDS011;64938;47.696;8.066;2023-06-26T01:51:17;8.20;;;7.40;;
76176;SDS011;64938;47.696;8.066;2023-06-26T01:53:45;8.53;;;7.63;;
76176;SDS011;64938;47.696;8.066;2023-06-26T01:56:17;8.57;;;7.77;;
76176;SDS011;64938;47.696;8.066;2023-06-26T01:58:45;8.00;;;7.30;;
76176;SDS011;64938;47.696;8.066;2023-06-26T02:01:11;7.77;;;7.17;;
76176;SDS011;64938;47.696;8.066;2023-06-26T02:03:37;8.50;;;7.80;;
76176;SDS011;64938;47.696;8.066;2023-06-26T02:06:03;7.90;;;7.20;;
76176;SDS011;64938;47.696;8.066;2023-06-26T02:08:28;8.50;;;7.80;;
76176;SDS011;64938;47.696;8.066;2023-06-26T02:10:54;8.57;;;7.77;;
76176;SDS011;64938;47.696;8.066;2023-06-26T02:13:19;8.53;;;7.73;;
76176;SDS011;64938;47.696;8.066;2023-06-26T02:15:45;8.43;;;7.73;;
76176;SDS011;64938;47.696;8.066;2023-06-26T02:18:11;8.17;;;7.50;;
76176;SDS011;64938;47.696;8.066;2023-06-26T02:20:36;9.60;;;7.53;;
76176;SDS011;64938;47.696;8.066;2023-06-26T02:23:06;8.50;;;7.70;;
76176;SDS011;64938;47.696;8.066;2023-06-26T02:25:32;8.20;;;7.40;;
76176;SDS011;64938;47.696;8.066;2023-06-26T02:27:57;7.97;;;7.27;;
76176;SDS011;64938;47.696;8.066;2023-06-26T02:30:23;8.43;;;7.63;;
76176;SDS011;64938;47.696;8.066;2023-06-26T02:32:48;8.53;;;7.67;;
76176;SDS011;64938;47.696;8.066;2023-06-26T02:35:14;8.10;;;7.30;;
76176;SDS011;64938;47.696;8.066;2023-06-26T02:37:40;8.43;;;7.73;;
76176;SDS011;64938;47.696;8.066;2023-06-26T02:40:06;8.60;;;7.67;;
76176;SDS011;64938;47.696;8.066;2023-06-26T02:42:35;8.40;;;7.70;;
76176;SDS011;64938;47.696;8.066;2023-06-26T02:45:00;8.90;;;8.10;;
76176;SDS011;64938;47.696;8.066;2023-06-26T02:47:29;8.90;;;8.10;;
76176;SDS011;64938;47.696;8.066;2023-06-26T02:49:54;8.60;;;7.90;;
76176;SDS011;64938;47.696;8.066;2023-06-26T02:52:20;7.77;;;7.07;;
76176;SDS011;64938;47.696;8.066;2023-06-26T02:54:45;8.13;;;7.43;;
76176;SDS011;64938;47.696;8.066;2023-06-26T02:57:13;8.60;;;7.93;;
76176;SDS011;64938;47.696;8.066;2023-06-26T02:59:39;8.50;;;7.80;;
76176;SDS011;64938;47.696;8.066;2023-06-26T03:02:05;8.77;;;7.97;;
76176;SDS011;64938;47.696;8.066;2023-06-26T03:04:31;9.10;;;8.30;;
76176;SDS011;64938;47.696;8.066;2023-06-26T03:06:56;9.27;;;8.47;;
76176;SDS011;64938;47.696;8.066;2023-06-26T03:09:22;9.37;;;8.50;;
76176;SDS011;64938;47.696;8.066;2023-06-26T03:11:50;8.90;;;8.00;;
76176;SDS011;64938;47.696;8.066;2023-06-26T03:14:16;8.40;;;7.70;;
76176;SDS011;64938;47.696;8.066;2023-06-26T03:16:41;8.40;;;7.70;;
76176;SDS011;64938;47.696;8.066;2023-06-26T03:19:10;8.53;;;7.73;;
76176;SDS011;64938;47.696;8.066;2023-06-26T03:21:37;9.50;;;7.87;;
76176;SDS011;64938;47.696;8.066;2023-06-26T03:24:03;8.53;;;7.73;;
76176;SDS011;64938;47.696;8.066;2023-06-26T03:26:29;8.83;;;8.10;;
76176;SDS011;64938;47.696;8.066;2023-06-26T03:28:54;8.83;;;8.03;;
76176;SDS011;64938;47.696;8.066;2023-06-26T03:31:20;8.73;;;7.93;;
76176;SDS011;64938;47.696;8.066;2023-06-26T03:33:46;9.07;;;8.27;;
76176;SDS011;64938;47.696;8.066;2023-06-26T03:36:15;8.90;;;8.10;;
76176;SDS011;64938;47.696;8.066;2023-06-26T03:38:41;10.10;;;9.10;;
76176;SDS011;64938;47.696;8.066;2023-06-26T03:41:06;8.90;;;8.10;;
76176;SDS011;64938;47.696;8.066;2023-06-26T03:43:32;9.13;;;8.03;;
76176;SDS011;64938;47.696;8.066;2023-06-26T03:46:00;9.13;;;8.30;;
76176;SDS011;64938;47.696;8.066;2023-06-26T03:48:26;8.60;;;7.90;;
76176;SDS011;64938;47.696;8.066;2023-06-26T03:50:54;8.40;;;7.60;;
76176;SDS011;64938;47.696;8.066;2023-06-26T03:53:24;9.20;;;8.40;;
76176;SDS011;64938;47.696;8.066;2023-06-26T03:55:50;8.67;;;7.87;;
76176;SDS011;64938;47.696;8.066;2023-06-26T03:58:15;8.40;;;7.67;;
76176;SDS011;64938;47.696;8.066;2023-06-26T04:00:41;9.20;;;8.40;;
76176;SDS011;64938;47.696;8.066;2023-06-26T04:03:07;8.67;;;7.97;;
76176;SDS011;64938;47.696;8.066;2023-06-26T04:05:34;9.33;;;8.43;;
76176;SDS011;64938;47.696;8.066;2023-06-26T04:07:59;9.63;;;8.80;;
76176;SDS011;64938;47.696;8.066;2023-06-26T04:10:25;9.53;;;8.63;;
76176;SDS011;64938;47.696;8.066;2023-06-26T04:12:50;9.20;;;8.40;;
76176;SDS011;64938;47.696;8.066;2023-06-26T04:15:18;9.40;;;8.50;;
76176;SDS011;64938;47.696;8.066;2023-06-26T04:17:46;8.90;;;8.10;;
76176;SDS011;64938;47.696;8.066;2023-06-26T04:20:11;9.50;;;8.60;;
76176;SDS011;64938;47.696;8.066;2023-06-26T04:22:37;8.57;;;7.87;;
76176;SDS011;64938;47.696;8.066;2023-06-26T04:25:03;8.17;;;7.47;;
76176;SDS011;64938;47.696;8.066;2023-06-26T04:27:29;9.00;;;8.20;;
76176;SDS011;64938;47.696;8.066;2023-06-26T04:29:55;8.27;;;7.47;;
76176;SDS011;64938;47.696;8.066;2023-06-26T04:32:20;7.67;;;6.97;;
76176;SDS011;64938;47.696;8.066;2023-06-26T04:34:46;8.13;;;7.43;;
76176;SDS011;64938;47.696;8.066;2023-06-26T04:37:13;7.90;;;7.20;;
76176;SDS011;64938;47.696;8.066;2023-06-26T04:39:44;7.73;;;7.13;;
76176;SDS011;64938;47.696;8.066;2023-06-26T04:42:09;6.83;;;6.33;;
76176;SDS011;64938;47.696;8.066;2023-06-26T04:44:37;7.37;;;6.77;;
76176;SDS011;64938;47.696;8.066;2023-06-26T04:47:03;7.50;;;6.80;;
76176;SDS011;64938;47.696;8.066;2023-06-26T04:49:29;7.53;;;6.83;;
76176;SDS011;64938;47.696;8.066;2023-06-26T04:51:55;8.10;;;7.40;;
76176;SDS011;64938;47.696;8.066;2023-06-26T04:54:23;7.10;;;6.50;;
76176;SDS011;64938;47.696;8.066;2023-06-26T04:56:48;6.45;;;5.95;;
76176;SDS011;64938;47.696;8.066;2023-06-26T04:59:14;7.00;;;6.50;;
76176;SDS011;64938;47.696;8.066;2023-06-26T05:01:40;6.82;;;6.22;;
76176;SDS011;64938;47.696;8.066;2023-06-26T05:04:06;6.63;;;6.13;;
76176;SDS011;64938;47.696;8.066;2023-06-26T05:06:32;6.68;;;6.18;;
76176;SDS011;64938;47.696;8.066;2023-06-26T05:08:57;6.53;;;6.03;;
76176;SDS011;64938;47.696;8.066;2023-06-26T05:11:24;6.50;;;6.00;;
76176;SDS011;64938;47.696;8.066;2023-06-26T05:13:51;6.15;;;5.65;;
76176;SDS011;64938;47.696;8.066;2023-06-26T05:16:16;6.30;;;5.80;;
76176;SDS011;64938;47.696;8.066;2023-06-26T05:18:42;5.97;;;5.43;;
76176;SDS011;64938;47.696;8.066;2023-06-26T05:21:08;6.38;;;5.88;;
76176;SDS011;64938;47.696;8.066;2023-06-26T05:23:34;6.80;;;5.70;;
76176;SDS011;64938;47.696;8.066;2023-06-26T05:26:00;6.18;;;5.78;;
76176;SDS011;64938;47.696;8.066;2023-06-26T05:28:27;6.50;;;5.90;;
76176;SDS011;64938;47.696;8.066;2023-06-26T05:30:54;6.70;;;6.20;;
76176;SDS011;64938;47.696;8.066;2023-06-26T05:33:21;5.93;;;5.53;;
76176;SDS011;64938;47.696;8.066;2023-06-26T05:35:49;6.50;;;6.00;;
76176;SDS011;64938;47.696;8.066;2023-06-26T05:38:17;5.72;;;5.32;;
76176;SDS011;64938;47.696;8.066;2023-06-26T05:40:43;6.55;;;6.05;;
76176;SDS011;64938;47.696;8.066;2023-06-26T05:43:08;6.38;;;5.95;;
76176;SDS011;64938;47.696;8.066;2023-06-26T05:45:34;6.03;;;5.63;;
76176;SDS011;64938;47.696;8.066;2023-06-26T05:48:00;6.10;;;5.70;;
76176;SDS011;64938;47.696;8.066;2023-06-26T05:50:26;5.97;;;5.40;;
76176;SDS011;64938;47.696;8.066;2023-06-26T05:52:52;6.82;;;6.32;;
76176;SDS011;64938;47.696;8.066;2023-06-26T05:55:18;6.53;;;6.03;;
76176;SDS011;64938;47.696;8.066;2023-06-26T05:57:45;5.95;;;5.55;;
76176;SDS011;64938;47.696;8.066;2023-06-26T06:00:12;6.53;;;6.03;;
76176;SDS011;64938;47.696;8.066;2023-06-26T06:02:38;6.03;;;5.63;;
76176;SDS011;64938;47.696;8.066;2023-06-26T06:05:05;6.97;;;6.47;;
76176;SDS011;64938;47.696;8.066;2023-06-26T06:07:32;5.70;;;5.30;;
76176;SDS011;64938;47.696;8.066;2023-06-26T06:09:58;6.13;;;5.72;;
76176;SDS011;64938;47.696;8.066;2023-06-26T06:12:24;6.18;;;5.55;;
76176;SDS011;64938;47.696;8.066;2023-06-26T06:14:50;6.35;;;5.90;;
76176;SDS011;64938;47.696;8.066;2023-06-26T06:17:20;6.05;;;5.65;;
76176;SDS011;64938;47.696;8.066;2023-06-26T06:19:46;6.38;;;5.88;;
76176;SDS011;64938;47.696;8.066;2023-06-26T06:22:11;6.38;;;5.93;;
76176;SDS011;64938;47.696;8.066;2023-06-26T06:24:37;6.65;;;6.00;;
76176;SDS011;64938;47.696;8.066;2023-06-26T06:27:02;6.80;;;6.30;;
76176;SDS011;64938;47.696;8.066;2023-06-26T06:29:28;6.07;;;5.60;;
76176;SDS011;64938;47.696;8.066;2023-06-26T06:31:56;7.10;;;6.50;;
76176;SDS011;64938;47.696;8.066;2023-06-26T06:34:35;6.00;;;5.50;;
76176;SDS011;64938;47.696;8.066;2023-06-26T06:37:11;6.95;;;6.45;;
76176;SDS011;64938;47.696;8.066;2023-06-26T06:39:43;6.60;;;6.20;;
76176;SDS011;64938;47.696;8.066;2023-06-26T06:42:09;6.63;;;6.13;;
76176;SDS011;64938;47.696;8.066;2023-06-26T06:44:45;6.40;;;6.00;;
76176;SDS011;64938;47.696;8.066;2023-06-26T06:47:17;6.88;;;6.28;;
76176;SDS011;64938;47.696;8.066;2023-06-26T06:49:46;5.90;;;5.50;;
76176;SDS011;64938;47.696;8.066;2023-06-26T06:52:13;6.82;;;6.22;;
76176;SDS011;64938;47.696;8.066;2023-06-26T06:57:19;6.97;;;6.38;;
76176;SDS011;64938;47.696;8.066;2023-06-26T06:59:46;7.07;;;6.38;;
76176;SDS011;64938;47.696;8.066;2023-06-26T07:02:15;6.40;;;5.90;;
76176;SDS011;64938;47.696;8.066;2023-06-26T07:04:42;7.30;;;6.60;;
76176;SDS011;64938;47.696;8.066;2023-06-26T07:07:07;6.82;;;6.28;;
76176;SDS011;64938;47.696;8.066;2023-06-26T07:09:33;6.90;;;6.40;;
76176;SDS011;64938;47.696;8.066;2023-06-26T07:12:00;7.20;;;6.60;;
76176;SDS011;64938;47.696;8.066;2023-06-26T07:14:26;6.60;;;6.20;;
76176;SDS011;64938;47.696;8.066;2023-06-26T07:16:51;6.47;;;5.97;;
76176;SDS011;64938;47.696;8.066;2023-06-26T07:19:17;6.22;;;5.72;;
76176;SDS011;64938;47.696;8.066;2023-06-26T07:21:43;6.72;;;6.22;;
76176;SDS011;64938;47.696;8.066;2023-06-26T07:24:12;5.80;;;5.30;;
76176;SDS011;64938;47.696;8.066;2023-06-26T07:26:37;6.95;;;6.45;;
76176;SDS011;64938;47.696;8.066;2023-06-26T07:29:05;6.25;;;5.85;;
76176;SDS011;64938;47.696;8.066;2023-06-26T07:31:31;6.70;;;6.30;;
76176;SDS011;64938;47.696;8.066;2023-06-26T07:33:57;7.03;;;6.53;;
76176;SDS011;64938;47.696;8.066;2023-06-26T07:36:23;6.78;;;6.28;;
76176;SDS011;64938;47.696;8.066;2023-06-26T07:38:51;6.55;;;6.15;;
76176;SDS011;64938;47.696;8.066;2023-06-26T07:41:17;6.35;;;5.88;;
76176;SDS011;64938;47.696;8.066;2023-06-26T07:43:42;6.38;;;5.88;;
76176;SDS011;64938;47.696;8.066;2023-06-26T07:46:08;6.38;;;5.88;;
76176;SDS011;64938;47.696;8.066;2023-06-26T07:48:33;6.40;;;5.90;;
76176;SDS011;64938;47.696;8.066;2023-06-26T07:51:03;6.00;;;5.60;;
76176;SDS011;64938;47.696;8.066;2023-06-26T07:53:28;6.60;;;6.20;;
76176;SDS011;64938;47.696;8.066;2023-06-26T07:55:54;6.45;;;6.05;;
76176;SDS011;64938;47.696;8.066;2023-06-26T07:58:19;6.43;;;6.00;;
76176;SDS011;64938;47.696;8.066;2023-06-26T08:00:45;6.47;;;6.07;;
76176;SDS011;64938;47.696;8.066;2023-06-26T08:03:10;6.53;;;6.03;;
76176;SDS011;64938;47.696;8.066;2023-06-26T08:05:37;6.43;;;6.03;;
76176;SDS011;64938;47.696;8.066;2023-06-26T08:08:06;7.60;;;6.82;;
76176;SDS011;64938;47.696;8.066;2023-06-26T08:10:32;6.28;;;5.80;;
76176;SDS011;64938;47.696;8.066;2023-06-26T08:12:58;6.05;;;5.65;;
76176;SDS011;64938;47.696;8.066;2023-06-26T08:15:25;6.03;;;5.63;;
76176;SDS011;64938;47.696;8.066;2023-06-26T08:17:51;5.55;;;5.20;;
76176;SDS011;64938;47.696;8.066;2023-06-26T08:20:18;7.00;;;6.50;;
76176;SDS011;64938;47.696;8.066;2023-06-26T08:22:45;6.03;;;5.53;;
76176;SDS011;64938;47.696;8.066;2023-06-26T08:25:13;5.75;;;5.35;;
76176;SDS011;64938;47.696;8.066;2023-06-26T08:27:39;6.97;;;5.68;;
76176;SDS011;64938;47.696;8.066;2023-06-26T08:30:04;6.70;;;6.20;;
76176;SDS011;64938;47.696;8.066;2023-06-26T08:32:30;5.72;;;5.32;;
76176;SDS011;64938;47.696;8.066;2023-06-26T08:34:56;6.63;;;6.13;;
76176;SDS011;64938;47.696;8.066;2023-06-26T08:37:22;6.57;;;6.15;;
76176;SDS011;64938;47.696;8.066;2023-06-26T08:39:47;6.10;;;5.60;;
76176;SDS011;64938;47.696;8.066;2023-06-26T08:42:13;6.93;;;6.43;;
76176;SDS011;64938;47.696;8.066;2023-06-26T08:44:39;7.00;;;6.50;;
76176;SDS011;64938;47.696;8.066;2023-06-26T08:47:07;7.40;;;6.80;;
76176;SDS011;64938;47.696;8.066;2023-06-26T08:55:33;6.97;;;6.38;;
76176;SDS011;64938;47.696;8.066;2023-06-26T08:58:03;6.70;;;6.20;;
76176;SDS011;64938;47.696;8.066;2023-06-26T09:00:29;7.03;;;6.53;;
76176;SDS011;64938;47.696;8.066;2023-06-26T09:02:55;6.75;;;6.25;;
76176;SDS011;64938;47.696;8.066;2023-06-26T09:05:21;6.28;;;5.88;;
76176;SDS011;64938;47.696;8.066;2023-06-26T09:07:47;6.38;;;5.88;;
76176;SDS011;64938;47.696;8.066;2023-06-26T09:10:12;7.28;;;6.78;;
76176;SDS011;64938;47.696;8.066;2023-06-26T09:12:38;6.80;;;6.30;;
76176;SDS011;64938;47.696;8.066;2023-06-26T09:15:04;7.07;;;6.47;;
76176;SDS011;64938;47.696;8.066;2023-06-26T09:17:38;6.97;;;6.45;;
76176;SDS011;64938;47.696;8.066;2023-06-26T09:20:09;7.78;;;7.03;;
76176;SDS011;64938;47.696;8.066;2023-06-26T09:22:40;7.00;;;6.50;;
76176;SDS011;64938;47.696;8.066;2023-06-26T09:25:06;7.03;;;6.43;;
76176;SDS011;64938;47.696;8.066;2023-06-26T09:27:32;7.60;;;7.10;;
76176;SDS011;64938;47.696;8.066;2023-06-26T09:29:59;7.88;;;7.28;;
76176;SDS011;64938;47.696;8.066;2023-06-26T09:32:38;9.70;;;6.90;;
76176;SDS011;64938;47.696;8.066;2023-06-26T09:35:06;7.68;;;7.07;;
76176;SDS011;64938;47.696;8.066;2023-06-26T09:37:34;8.02;;;7.38;;
76176;SDS011;64938;47.696;8.066;2023-06-26T09:40:00;7.97;;;7.38;;
76176;SDS011;64938;47.696;8.066;2023-06-26T09:42:29;8.18;;;7.38;;
76176;SDS011;64938;47.696;8.066;2023-06-26T09:44:55;9.43;;;8.63;;
76176;SDS011;64938;47.696;8.066;2023-06-26T09:47:21;8.35;;;7.65;;
76176;SDS011;64938;47.696;8.066;2023-06-26T09:49:47;8.50;;;7.90;;
76176;SDS011;64938;47.696;8.066;2023-06-26T09:52:18;8.82;;;8.05;;
76176;SDS011;64938;47.696;8.066;2023-06-26T09:54:45;8.77;;;8.07;;
76176;SDS011;64938;47.696;8.066;2023-06-26T09:57:16;8.82;;;8.13;;
76176;SDS011;64938;47.696;8.066;2023-06-26T09:59:42;8.45;;;7.75;;
76176;SDS011;64938;47.696;8.066;2023-06-26T10:02:11;8.75;;;8.13;;
76176;SDS011;64938;47.696;8.066;2023-06-26T10:04:37;8.68;;;7.97;;
76176;SDS011;64938;47.696;8.066;2023-06-26T10:07:04;9.05;;;8.35;;
76176;SDS011;64938;47.696;8.066;2023-06-26T10:09:31;8.65;;;7.95;;
76176;SDS011;64938;47.696;8.066;2023-06-26T10:14:37;9.73;;;8.93;;
76176;SDS011;64938;47.696;8.066;2023-06-26T10:17:03;9.73;;;9.02;;
76176;SDS011;64938;47.696;8.066;2023-06-26T10:19:33;10.02;;;9.02;;
76176;SDS011;64938;47.696;8.066;2023-06-26T10:21:59;9.35;;;8.45;;
76176;SDS011;64938;47.696;8.066;2023-06-26T10:24:26;8.82;;;8.02;;
76176;SDS011;64938;47.696;8.066;2023-06-26T10:27:37;9.00;;;8.02;;
76176;SDS011;64938;47.696;8.066;2023-06-26T10:29:47;9.73;;;8.98;;
76176;SDS011;64938;47.696;8.066;2023-06-26T10:32:15;9.70;;;8.90;;
76176;SDS011;64938;47.696;8.066;2023-06-26T10:34:45;9.75;;;8.95;;
76176;SDS011;64938;47.696;8.066;2023-06-26T10:37:11;9.05;;;8.32;;
76176;SDS011;64938;47.696;8.066;2023-06-26T10:42:15;8.20;;;7.60;;
76176;SDS011;64938;47.696;8.066;2023-06-26T10:44:42;8.40;;;7.70;;
76176;SDS011;64938;47.696;8.066;2023-06-26T10:47:09;11.15;;;9.68;;
76176;SDS011;64938;47.696;8.066;2023-06-26T10:49:36;9.13;;;8.43;;
76176;SDS011;64938;47.696;8.066;2023-06-26T10:52:06;9.60;;;8.88;;
76176;SDS011;64938;47.696;8.066;2023-06-26T10:54:34;9.73;;;8.95;;
76176;SDS011;64938;47.696;8.066;2023-06-26T10:57:01;9.73;;;8.93;;
76176;SDS011;64938;47.696;8.066;2023-06-26T10:59:28;9.43;;;8.73;;
76176;SDS011;64938;47.696;8.066;2023-06-26T11:02:01;10.35;;;9.35;;
76176;SDS011;64938;47.696;8.066;2023-06-26T11:04:36;9.93;;;9.13;;
76176;SDS011;64938;47.696;8.066;2023-06-26T11:07:19;11.00;;;10.10;;
76176;SDS011;64938;47.696;8.066;2023-06-26T11:10:07;9.90;;;9.02;;
76176;SDS011;64938;47.696;8.066;2023-06-26T11:12:41;9.95;;;9.05;;
76176;SDS011;64938;47.696;8.066;2023-06-26T11:17:38;9.82;;;9.13;;
76176;SDS011;64938;47.696;8.066;2023-06-26T11:20:08;10.40;;;9.50;;
76176;SDS011;64938;47.696;8.066;2023-06-26T11:22:35;11.60;;;10.35;;
76176;SDS011;64938;47.696;8.066;2023-06-26T11:25:06;10.35;;;9.45;;
76176;SDS011;64938;47.696;8.066;2023-06-26T11:27:37;15.38;;;9.20;;
76176;SDS011;64938;47.696;8.066;2023-06-26T11:30:08;10.52;;;9.60;;
76176;SDS011;64938;47.696;8.066;2023-06-26T11:32:48;11.05;;;10.00;;
76176;SDS011;64938;47.696;8.066;2023-06-26T11:35:21;10.70;;;9.80;;
76176;SDS011;64938;47.696;8.066;2023-06-26T11:37:56;11.52;;;8.90;;
76176;SDS011;64938;47.696;8.066;2023-06-26T11:40:25;9.32;;;8.43;;
76176;SDS011;64938;47.696;8.066;2023-06-26T11:42:59;10.70;;;9.80;;
76176;SDS011;64938;47.696;8.066;2023-06-26T11:45:27;10.82;;;9.93;;
76176;SDS011;64938;47.696;8.066;2023-06-26T11:47:57;10.27;;;9.48;;
76176;SDS011;64938;47.696;8.066;2023-06-26T11:50:24;9.63;;;8.55;;
76176;SDS011;64938;47.696;8.066;2023-06-26T11:52:56;9.38;;;8.68;;
76176;SDS011;64938;47.696;8.066;2023-06-26T11:55:25;10.55;;;9.65;;
76176;SDS011;64938;47.696;8.066;2023-06-26T11:57:55;10.18;;;9.07;;
76176;SDS011;64938;47.696;8.066;2023-06-26T12:00:23;9.70;;;8.90;;
76176;SDS011;64938;47.696;8.066;2023-06-26T12:02:49;9.85;;;9.05;;
76176;SDS011;64938;47.696;8.066;2023-06-26T12:05:15;10.13;;;9.43;;
76176;SDS011;64938;47.696;8.066;2023-06-26T12:07:49;9.45;;;8.68;;
76176;SDS011;64938;47.696;8.066;2023-06-26T12:10:15;9.93;;;9.18;;
76176;SDS011;64938;47.696;8.066;2023-06-26T12:12:43;10.32;;;9.18;;
76176;SDS011;64938;47.696;8.066;2023-06-26T12:15:10;10.13;;;9.32;;
76176;SDS011;64938;47.696;8.066;2023-06-26T12:17:39;10.65;;;9.60;;
76176;SDS011;64938;47.696;8.066;2023-06-26T12:20:05;10.85;;;10.02;;
76176;SDS011;64938;47.696;8.066;2023-06-26T12:22:35;9.35;;;8.65;;
76176;SDS011;64938;47.696;8.066;2023-06-26T12:25:02;10.48;;;9.48;;
76176;SDS011;64938;47.696;8.066;2023-06-26T12:27:27;10.20;;;9.10;;
76176;SDS011;64938;47.696;8.066;2023-06-26T12:29:54;10.75;;;9.65;;
76176;SDS011;64938;47.696;8.066;2023-06-26T12:32:23;10.23;;;9.32;;
76176;SDS011;64938;47.696;8.066;2023-06-26T12:34:51;10.57;;;9.57;;
76176;SDS011;64938;47.696;8.066;2023-06-26T12:40:44;9.68;;;8.88;;
76176;SDS011;64938;47.696;8.066;2023-06-26T12:43:11;10.02;;;9.23;;
76176;SDS011;64938;47.696;8.066;2023-06-26T12:45:37;9.25;;;8.40;;
76176;SDS011;64938;47.696;8.066;2023-06-26T12:48:11;10.10;;;9.13;;
76176;SDS011;64938;47.696;8.066;2023-06-26T12:50:44;9.30;;;8.50;;
76176;SDS011;64938;47.696;8.066;2023-06-26T12:53:13;9.70;;;8.88;;
76176;SDS011;64938;47.696;8.066;2023-06-26T12:55:38;9.38;;;8.57;;
76176;SDS011;64938;47.696;8.066;2023-06-26T12:58:09;9.48;;;8.63;;
76176;SDS011;64938;47.696;8.066;2023-06-26T13:00:37;9.75;;;8.95;;
76176;SDS011;64938;47.696;8.066;2023-06-26T13:03:04;9.23;;;8.52;;
76176;SDS011;64938;47.696;8.066;2023-06-26T13:05:30;9.82;;;8.93;;
76176;SDS011;64938;47.696;8.066;2023-06-26T13:07:56;9.07;;;8.27;;
76176;SDS011;64938;47.696;8.066;2023-06-26T13:10:23;8.75;;;8.05;;
76176;SDS011;64938;47.696;8.066;2023-06-26T13:12:50;9.77;;;8.77;;
76176;SDS011;64938;47.696;8.066;2023-06-26T13:15:15;8.63;;;8.02;;
76176;SDS011;64938;47.696;8.066;2023-06-26T13:17:41;9.57;;;8.77;;
76176;SDS011;64938;47.696;8.066;2023-06-26T13:20:06;8.82;;;8.23;;
76176;SDS011;64938;47.696;8.066;2023-06-26T13:22:35;9.55;;;7.88;;
76176;SDS011;64938;47.696;8.066;2023-06-26T13:25:00;8.15;;;7.28;;
76176;SDS011;64938;47.696;8.066;2023-06-26T13:27:30;8.13;;;7.32;;
76176;SDS011;64938;47.696;8.066;2023-06-26T13:30:01;8.55;;;7.75;;
76176;SDS011;64938;47.696;8.066;2023-06-26T13:32:29;8.18;;;7.47;;
76176;SDS011;64938;47.696;8.066;2023-06-26T13:34:54;8.40;;;7.50;;
76176;SDS011;64938;47.696;8.066;2023-06-26T13:37:20;8.75;;;7.97;;
76176;SDS011;64938;47.696;8.066;2023-06-26T13:39:46;8.00;;;7.30;;
76176;SDS011;64938;47.696;8.066;2023-06-26T13:42:15;11.65;;;7.20;;
76176;SDS011;64938;47.696;8.066;2023-06-26T13:44:43;8.20;;;7.50;;
76176;SDS011;64938;47.696;8.066;2023-06-26T13:47:12;8.13;;;7.32;;
76176;SDS011;64938;47.696;8.066;2023-06-26T13:49:44;7.65;;;6.95;;
76176;SDS011;64938;47.696;8.066;2023-06-26T13:52:14;7.82;;;7.05;;
76176;SDS011;64938;47.696;8.066;2023-06-26T13:54:39;7.68;;;6.93;;
76176;SDS011;64938;47.696;8.066;2023-06-26T13:57:06;8.23;;;7.53;;
76176;SDS011;64938;47.696;8.066;2023-06-26T13:59:32;7.45;;;6.82;;
76176;SDS011;64938;47.696;8.066;2023-06-26T14:01:57;6.90;;;6.40;;
76176;SDS011;64938;47.696;8.066;2023-06-26T14:04:24;7.72;;;7.03;;
76176;SDS011;64938;47.696;8.066;2023-06-26T14:06:52;7.32;;;6.63;;
76176;SDS011;64938;47.696;8.066;2023-06-26T14:09:17;7.40;;;6.80;;
76176;SDS011;64938;47.696;8.066;2023-06-26T14:11:43;7.07;;;6.43;;
76176;SDS011;64938;47.696;8.066;2023-06-26T14:14:09;8.07;;;7.35;;
76176;SDS011;64938;47.696;8.066;2023-06-26T14:16:43;7.13;;;6.53;;
76176;SDS011;64938;47.696;8.066;2023-06-26T14:19:09;7.07;;;6.47;;
76176;SDS011;64938;47.696;8.066;2023-06-26T14:21:42;7.00;;;6.40;;
76176;SDS011;64938;47.696;8.066;2023-06-26T14:24:09;6.80;;;6.30;;
76176;SDS011;64938;47.696;8.066;2023-06-26T14:26:36;7.18;;;6.47;;
76176;SDS011;64938;47.696;8.066;2023-06-26T14:29:03;5.72;;;5.22;;
76176;SDS011;64938;47.696;8.066;2023-06-26T14:31:29;6.60;;;5.50;;
76176;SDS011;64938;47.696;8.066;2023-06-26T14:34:01;6.68;;;6.07;;
76176;SDS011;64938;47.696;8.066;2023-06-26T14:36:28;6.07;;;5.57;;
76176;SDS011;64938;47.696;8.066;2023-06-26T14:38:56;6.57;;;5.88;;
76176;SDS011;64938;47.696;8.066;2023-06-26T14:41:29;6.05;;;5.45;;
76176;SDS011;64938;47.696;8.066;2023-06-26T14:43:55;6.10;;;5.60;;
76176;SDS011;64938;47.696;8.066;2023-06-26T14:46:28;6.07;;;5.47;;
76176;SDS011;64938;47.696;8.066;2023-06-26T14:48:57;5.80;;;4.95;;
76176;SDS011;64938;47.696;8.066;2023-06-26T14:51:23;6.00;;;5.43;;
76176;SDS011;64938;47.696;8.066;2023-06-26T14:53:51;5.65;;;5.15;;
76176;SDS011;64938;47.696;8.066;2023-06-26T14:56:16;5.60;;;5.10;;
76176;SDS011;64938;47.696;8.066;2023-06-26T14:58:42;5.32;;;4.80;;
76176;SDS011;64938;47.696;8.066;2023-06-26T15:01:07;5.60;;;5.10;;
76176;SDS011;64938;47.696;8.066;2023-06-26T15:03:48;6.28;;;5.30;;
76176;SDS011;64938;47.696;8.066;2023-06-26T15:06:17;8.80;;;4.95;;
76176;SDS011;64938;47.696;8.066;2023-06-26T15:08:43;5.18;;;4.68;;
76176;SDS011;64938;47.696;8.066;2023-06-26T15:11:09;5.40;;;4.90;;
76176;SDS011;64938;47.696;8.066;2023-06-26T15:13:34;4.30;;;3.90;;
76176;SDS011;64938;47.696;8.066;2023-06-26T15:16:00;4.30;;;4.00;;